sensor_id;sensor_type;location;lat;lon;timestamp;P1;durP1;ratioP1;P2;durP2;ratioP2
83247;SDS011;73465;51.038;7.052;2024-03-17T00:00:37;11.88;;;4.40;;
83247;SDS011;73465;51.038;7.052;2024-03-17T00:03:07;8.30;;;3.95;;
83247;SDS011;73465;51.038;7.052;2024-03-17T00:05:34;11.45;;;4.03;;
83247;SDS011;73465;51.038;7.052;2024-03-17T00:08:00;10.10;;;4.35;;
83247;SDS011;73465;51.038;7.052;2024-03-17T00:10:26;10.88;;;4.10;;
83247;SDS011;73465;51.038;7.052;2024-03-17T00:12:51;10.70;;;3.92;;
83247;SDS011;73465;51.038;7.052;2024-03-17T00:15:16;13.48;;;4.50;;
83247;SDS011;73465;51.038;7.052;2024-03-17T00:17:42;9.65;;;4.10;;
83247;SDS011;73465;51.038;7.052;2024-03-17T00:20:08;9.95;;;3.92;;
83247;SDS011;73465;51.038;7.052;2024-03-17T00:22:39;9.70;;;3.97;;
83247;SDS011;73465;51.038;7.052;2024-03-17T00:25:06;18.65;;;4.97;;
83247;SDS011;73465;51.038;7.052;2024-03-17T00:27:32;11.50;;;4.72;;
83247;SDS011;73465;51.038;7.052;2024-03-17T00:29:59;10.55;;;3.58;;
83247;SDS011;73465;51.038;7.052;2024-03-17T00:32:24;13.70;;;4.40;;
83247;SDS011;73465;51.038;7.052;2024-03-17T00:34:51;14.02;;;3.95;;
83247;SDS011;73465;51.038;7.052;2024-03-17T00:37:18;11.98;;;4.18;;
83247;SDS011;73465;51.038;7.052;2024-03-17T00:39:43;12.18;;;3.72;;
83247;SDS011;73465;51.038;7.052;2024-03-17T00:42:09;14.85;;;4.68;;
83247;SDS011;73465;51.038;7.052;2024-03-17T00:44:34;12.27;;;4.57;;
83247;SDS011;73465;51.038;7.052;2024-03-17T00:47:00;12.80;;;4.25;;
83247;SDS011;73465;51.038;7.052;2024-03-17T00:49:25;13.05;;;3.88;;
83247;SDS011;73465;51.038;7.052;2024-03-17T00:51:50;8.65;;;3.97;;
83247;SDS011;73465;51.038;7.052;2024-03-17T00:54:16;16.45;;;4.43;;
83247;SDS011;73465;51.038;7.052;2024-03-17T00:56:43;13.60;;;4.22;;
83247;SDS011;73465;51.038;7.052;2024-03-17T00:59:08;10.35;;;4.93;;
83247;SDS011;73465;51.038;7.052;2024-03-17T01:01:34;9.68;;;3.58;;
83247;SDS011;73465;51.038;7.052;2024-03-17T01:03:59;11.02;;;4.35;;
83247;SDS011;73465;51.038;7.052;2024-03-17T01:06:24;10.23;;;3.85;;
83247;SDS011;73465;51.038;7.052;2024-03-17T01:08:50;11.48;;;4.60;;
83247;SDS011;73465;51.038;7.052;2024-03-17T01:11:16;8.35;;;4.45;;
83247;SDS011;73465;51.038;7.052;2024-03-17T01:13:44;14.27;;;4.30;;
83247;SDS011;73465;51.038;7.052;2024-03-17T01:16:11;11.95;;;4.32;;
83247;SDS011;73465;51.038;7.052;2024-03-17T01:18:36;10.80;;;4.47;;
83247;SDS011;73465;51.038;7.052;2024-03-17T01:21:02;7.90;;;3.80;;
83247;SDS011;73465;51.038;7.052;2024-03-17T01:23:29;19.80;;;4.35;;
83247;SDS011;73465;51.038;7.052;2024-03-17T01:25:54;9.00;;;4.40;;
83247;SDS011;73465;51.038;7.052;2024-03-17T01:28:20;11.65;;;4.35;;
83247;SDS011;73465;51.038;7.052;2024-03-17T01:30:45;12.32;;;5.28;;
83247;SDS011;73465;51.038;7.052;2024-03-17T01:33:12;9.82;;;4.72;;
83247;SDS011;73465;51.038;7.052;2024-03-17T01:35:37;10.02;;;4.22;;
83247;SDS011;73465;51.038;7.052;2024-03-17T01:38:03;12.50;;;4.35;;
83247;SDS011;73465;51.038;7.052;2024-03-17T01:40:29;11.15;;;4.32;;
83247;SDS011;73465;51.038;7.052;2024-03-17T01:42:54;8.90;;;4.47;;
83247;SDS011;73465;51.038;7.052;2024-03-17T01:45:21;11.40;;;4.78;;
83247;SDS011;73465;51.038;7.052;2024-03-17T01:47:56;14.25;;;4.68;;
83247;SDS011;73465;51.038;7.052;2024-03-17T01:50:26;12.15;;;4.70;;
83247;SDS011;73465;51.038;7.052;2024-03-17T01:53:01;9.32;;;4.65;;
83247;SDS011;73465;51.038;7.052;2024-03-17T01:55:29;13.43;;;4.85;;
83247;SDS011;73465;51.038;7.052;2024-03-17T01:57:56;18.38;;;4.65;;
83247;SDS011;73465;51.038;7.052;2024-03-17T02:00:22;11.75;;;5.60;;
83247;SDS011;73465;51.038;7.052;2024-03-17T02:02:48;11.85;;;5.65;;
83247;SDS011;73465;51.038;7.052;2024-03-17T02:05:13;17.90;;;7.15;;
83247;SDS011;73465;51.038;7.052;2024-03-17T02:07:39;11.63;;;4.95;;
83247;SDS011;73465;51.038;7.052;2024-03-17T02:10:05;13.88;;;6.05;;
83247;SDS011;73465;51.038;7.052;2024-03-17T02:12:31;12.13;;;5.75;;
83247;SDS011;73465;51.038;7.052;2024-03-17T02:14:57;14.38;;;5.65;;
83247;SDS011;73465;51.038;7.052;2024-03-17T02:17:23;13.23;;;6.28;;
83247;SDS011;73465;51.038;7.052;2024-03-17T02:19:50;11.48;;;5.18;;
83247;SDS011;73465;51.038;7.052;2024-03-17T02:22:16;11.45;;;5.78;;
83247;SDS011;73465;51.038;7.052;2024-03-17T02:24:43;14.30;;;6.43;;
83247;SDS011;73465;51.038;7.052;2024-03-17T02:27:09;11.07;;;5.45;;
83247;SDS011;73465;51.038;7.052;2024-03-17T02:29:36;21.38;;;7.68;;
83247;SDS011;73465;51.038;7.052;2024-03-17T02:32:04;15.73;;;6.00;;
83247;SDS011;73465;51.038;7.052;2024-03-17T02:34:35;19.35;;;6.32;;
83247;SDS011;73465;51.038;7.052;2024-03-17T02:37:02;12.70;;;5.82;;
83247;SDS011;73465;51.038;7.052;2024-03-17T02:39:29;17.75;;;6.05;;
83247;SDS011;73465;51.038;7.052;2024-03-17T02:42:04;16.35;;;8.15;;
83247;SDS011;73465;51.038;7.052;2024-03-17T02:44:31;13.13;;;6.35;;
83247;SDS011;73465;51.038;7.052;2024-03-17T02:46:57;19.08;;;7.32;;
83247;SDS011;73465;51.038;7.052;2024-03-17T02:49:27;14.98;;;6.13;;
83247;SDS011;73465;51.038;7.052;2024-03-17T02:54:26;10.90;;;6.20;;
83247;SDS011;73465;51.038;7.052;2024-03-17T02:56:52;19.30;;;6.70;;
83247;SDS011;73465;51.038;7.052;2024-03-17T02:59:17;17.10;;;7.03;;
83247;SDS011;73465;51.038;7.052;2024-03-17T03:01:43;16.58;;;6.43;;
83247;SDS011;73465;51.038;7.052;2024-03-17T03:04:10;14.40;;;7.00;;
83247;SDS011;73465;51.038;7.052;2024-03-17T03:06:35;18.35;;;7.03;;
83247;SDS011;73465;51.038;7.052;2024-03-17T03:09:01;16.85;;;8.30;;
83247;SDS011;73465;51.038;7.052;2024-03-17T03:11:26;17.27;;;6.88;;
83247;SDS011;73465;51.038;7.052;2024-03-17T03:13:52;22.30;;;7.05;;
83247;SDS011;73465;51.038;7.052;2024-03-17T03:16:17;12.98;;;7.22;;
83247;SDS011;73465;51.038;7.052;2024-03-17T03:18:45;15.02;;;6.95;;
83247;SDS011;73465;51.038;7.052;2024-03-17T03:21:11;18.98;;;6.80;;
83247;SDS011;73465;51.038;7.052;2024-03-17T03:23:37;19.27;;;7.85;;
83247;SDS011;73465;51.038;7.052;2024-03-17T03:26:03;13.40;;;6.97;;
83247;SDS011;73465;51.038;7.052;2024-03-17T03:28:29;19.73;;;7.15;;
83247;SDS011;73465;51.038;7.052;2024-03-17T03:30:56;22.23;;;7.50;;
83247;SDS011;73465;51.038;7.052;2024-03-17T03:33:23;20.02;;;7.85;;
83247;SDS011;73465;51.038;7.052;2024-03-17T03:35:48;16.65;;;7.35;;
83247;SDS011;73465;51.038;7.052;2024-03-17T03:38:15;23.85;;;8.77;;
83247;SDS011;73465;51.038;7.052;2024-03-17T03:40:41;20.33;;;7.80;;
83247;SDS011;73465;51.038;7.052;2024-03-17T03:43:07;17.10;;;7.55;;
83247;SDS011;73465;51.038;7.052;2024-03-17T03:45:37;15.40;;;8.32;;
83247;SDS011;73465;51.038;7.052;2024-03-17T03:48:03;16.38;;;8.75;;
83247;SDS011;73465;51.038;7.052;2024-03-17T03:50:29;20.88;;;8.45;;
83247;SDS011;73465;51.038;7.052;2024-03-17T03:52:55;17.33;;;8.75;;
83247;SDS011;73465;51.038;7.052;2024-03-17T03:55:21;18.20;;;8.65;;
83247;SDS011;73465;51.038;7.052;2024-03-17T03:57:47;15.13;;;8.25;;
83247;SDS011;73465;51.038;7.052;2024-03-17T04:00:16;14.60;;;7.88;;
83247;SDS011;73465;51.038;7.052;2024-03-17T04:05:12;18.20;;;8.32;;
83247;SDS011;73465;51.038;7.052;2024-03-17T04:07:37;23.70;;;10.07;;
83247;SDS011;73465;51.038;7.052;2024-03-17T04:10:03;19.25;;;8.65;;
83247;SDS011;73465;51.038;7.052;2024-03-17T04:12:29;21.77;;;8.43;;
83247;SDS011;73465;51.038;7.052;2024-03-17T04:14:56;19.15;;;9.15;;
83247;SDS011;73465;51.038;7.052;2024-03-17T04:17:22;20.20;;;8.65;;
83247;SDS011;73465;51.038;7.052;2024-03-17T04:19:48;15.88;;;8.13;;
83247;SDS011;73465;51.038;7.052;2024-03-17T04:22:17;15.63;;;8.23;;
83247;SDS011;73465;51.038;7.052;2024-03-17T04:24:44;19.88;;;9.10;;
83247;SDS011;73465;51.038;7.052;2024-03-17T04:27:10;20.40;;;8.50;;
83247;SDS011;73465;51.038;7.052;2024-03-17T04:29:36;23.13;;;9.13;;
83247;SDS011;73465;51.038;7.052;2024-03-17T04:32:03;21.25;;;8.60;;
83247;SDS011;73465;51.038;7.052;2024-03-17T04:34:30;21.52;;;8.43;;
83247;SDS011;73465;51.038;7.052;2024-03-17T04:36:56;21.85;;;9.27;;
83247;SDS011;73465;51.038;7.052;2024-03-17T04:39:23;21.02;;;9.13;;
83247;SDS011;73465;51.038;7.052;2024-03-17T04:41:50;15.30;;;8.20;;
83247;SDS011;73465;51.038;7.052;2024-03-17T04:44:17;25.40;;;10.65;;
83247;SDS011;73465;51.038;7.052;2024-03-17T04:46:43;17.60;;;9.13;;
83247;SDS011;73465;51.038;7.052;2024-03-17T04:49:09;20.80;;;8.75;;
83247;SDS011;73465;51.038;7.052;2024-03-17T04:51:34;16.50;;;8.98;;
83247;SDS011;73465;51.038;7.052;2024-03-17T04:54:00;23.83;;;9.18;;
83247;SDS011;73465;51.038;7.052;2024-03-17T04:56:30;18.25;;;8.45;;
83247;SDS011;73465;51.038;7.052;2024-03-17T04:58:56;21.13;;;9.80;;
83247;SDS011;73465;51.038;7.052;2024-03-17T05:01:21;25.25;;;9.98;;
83247;SDS011;73465;51.038;7.052;2024-03-17T05:03:46;22.45;;;9.45;;
83247;SDS011;73465;51.038;7.052;2024-03-17T05:06:12;20.60;;;10.10;;
83247;SDS011;73465;51.038;7.052;2024-03-17T05:08:37;23.20;;;10.25;;
83247;SDS011;73465;51.038;7.052;2024-03-17T05:11:03;19.60;;;9.05;;
83247;SDS011;73465;51.038;7.052;2024-03-17T05:13:30;30.23;;;9.57;;
83247;SDS011;73465;51.038;7.052;2024-03-17T05:16:00;19.08;;;9.60;;
83247;SDS011;73465;51.038;7.052;2024-03-17T05:18:26;31.17;;;10.88;;
83247;SDS011;73465;51.038;7.052;2024-03-17T05:21:01;22.60;;;9.30;;
83247;SDS011;73465;51.038;7.052;2024-03-17T05:23:28;20.92;;;9.45;;
83247;SDS011;73465;51.038;7.052;2024-03-17T05:25:55;20.40;;;9.27;;
83247;SDS011;73465;51.038;7.052;2024-03-17T05:28:21;22.17;;;9.77;;
83247;SDS011;73465;51.038;7.052;2024-03-17T05:30:47;28.42;;;10.73;;
83247;SDS011;73465;51.038;7.052;2024-03-17T05:33:14;25.20;;;10.23;;
83247;SDS011;73465;51.038;7.052;2024-03-17T05:35:40;26.48;;;10.30;;
83247;SDS011;73465;51.038;7.052;2024-03-17T05:38:06;22.45;;;10.23;;
83247;SDS011;73465;51.038;7.052;2024-03-17T05:40:35;17.98;;;9.38;;
83247;SDS011;73465;51.038;7.052;2024-03-17T05:43:02;25.20;;;10.05;;
83247;SDS011;73465;51.038;7.052;2024-03-17T05:45:28;21.65;;;10.93;;
83247;SDS011;73465;51.038;7.052;2024-03-17T05:47:55;25.88;;;10.23;;
83247;SDS011;73465;51.038;7.052;2024-03-17T05:50:21;20.23;;;10.65;;
83247;SDS011;73465;51.038;7.052;2024-03-17T05:52:48;19.83;;;10.13;;
83247;SDS011;73465;51.038;7.052;2024-03-17T05:55:13;22.23;;;10.18;;
83247;SDS011;73465;51.038;7.052;2024-03-17T05:57:38;25.55;;;10.68;;
83247;SDS011;73465;51.038;7.052;2024-03-17T06:00:04;20.73;;;10.75;;
83247;SDS011;73465;51.038;7.052;2024-03-17T06:02:29;19.75;;;10.93;;
83247;SDS011;73465;51.038;7.052;2024-03-17T06:04:55;22.15;;;10.73;;
83247;SDS011;73465;51.038;7.052;2024-03-17T06:07:20;22.55;;;10.93;;
83247;SDS011;73465;51.038;7.052;2024-03-17T06:09:45;21.15;;;10.93;;
83247;SDS011;73465;51.038;7.052;2024-03-17T06:12:12;21.00;;;10.05;;
83247;SDS011;73465;51.038;7.052;2024-03-17T06:14:37;17.30;;;9.48;;
83247;SDS011;73465;51.038;7.052;2024-03-17T06:17:03;18.52;;;9.38;;
83247;SDS011;73465;51.038;7.052;2024-03-17T06:19:30;18.40;;;9.93;;
83247;SDS011;73465;51.038;7.052;2024-03-17T06:21:55;23.95;;;10.10;;
83247;SDS011;73465;51.038;7.052;2024-03-17T06:24:22;22.13;;;10.35;;
83247;SDS011;73465;51.038;7.052;2024-03-17T06:26:50;24.83;;;9.77;;
83247;SDS011;73465;51.038;7.052;2024-03-17T06:29:15;18.08;;;10.30;;
83247;SDS011;73465;51.038;7.052;2024-03-17T06:31:42;18.60;;;9.68;;
83247;SDS011;73465;51.038;7.052;2024-03-17T06:34:07;18.45;;;9.73;;
83247;SDS011;73465;51.038;7.052;2024-03-17T06:36:32;18.73;;;9.68;;
83247;SDS011;73465;51.038;7.052;2024-03-17T06:38:58;18.05;;;10.00;;
83247;SDS011;73465;51.038;7.052;2024-03-17T06:41:25;21.77;;;9.70;;
83247;SDS011;73465;51.038;7.052;2024-03-17T06:43:50;18.42;;;9.00;;
83247;SDS011;73465;51.038;7.052;2024-03-17T06:46:16;18.98;;;8.40;;
83247;SDS011;73465;51.038;7.052;2024-03-17T06:48:41;17.35;;;7.88;;
83247;SDS011;73465;51.038;7.052;2024-03-17T06:51:08;14.68;;;8.40;;
83247;SDS011;73465;51.038;7.052;2024-03-17T06:53:33;15.68;;;7.60;;
83247;SDS011;73465;51.038;7.052;2024-03-17T06:55:59;11.52;;;7.15;;
83247;SDS011;73465;51.038;7.052;2024-03-17T06:58:25;13.25;;;7.32;;
83247;SDS011;73465;51.038;7.052;2024-03-17T07:00:56;18.52;;;7.95;;
83247;SDS011;73465;51.038;7.052;2024-03-17T07:03:25;10.85;;;6.82;;
83247;SDS011;73465;51.038;7.052;2024-03-17T07:05:52;15.93;;;7.57;;
83247;SDS011;73465;51.038;7.052;2024-03-17T07:08:22;11.98;;;7.30;;
83247;SDS011;73465;51.038;7.052;2024-03-17T07:11:04;14.02;;;7.65;;
83247;SDS011;73465;51.038;7.052;2024-03-17T07:13:35;13.25;;;6.55;;
83247;SDS011;73465;51.038;7.052;2024-03-17T07:16:02;13.60;;;6.90;;
83247;SDS011;73465;51.038;7.052;2024-03-17T07:18:33;12.80;;;6.40;;
83247;SDS011;73465;51.038;7.052;2024-03-17T07:21:00;16.02;;;7.10;;
83247;SDS011;73465;51.038;7.052;2024-03-17T07:23:33;10.65;;;6.32;;
83247;SDS011;73465;51.038;7.052;2024-03-17T07:25:59;9.63;;;5.72;;
83247;SDS011;73465;51.038;7.052;2024-03-17T07:28:25;10.02;;;5.68;;
83247;SDS011;73465;51.038;7.052;2024-03-17T07:30:52;10.68;;;5.93;;
83247;SDS011;73465;51.038;7.052;2024-03-17T07:33:19;10.73;;;5.85;;
83247;SDS011;73465;51.038;7.052;2024-03-17T07:35:49;10.95;;;5.63;;
83247;SDS011;73465;51.038;7.052;2024-03-17T07:38:20;9.95;;;5.50;;
83247;SDS011;73465;51.038;7.052;2024-03-17T07:40:57;13.63;;;5.75;;
83247;SDS011;73465;51.038;7.052;2024-03-17T07:43:33;12.60;;;5.95;;
83247;SDS011;73465;51.038;7.052;2024-03-17T07:46:03;10.07;;;6.00;;
83247;SDS011;73465;51.038;7.052;2024-03-17T07:48:31;13.88;;;6.18;;
83247;SDS011;73465;51.038;7.052;2024-03-17T07:50:59;10.57;;;6.35;;
83247;SDS011;73465;51.038;7.052;2024-03-17T07:53:28;12.38;;;6.03;;
83247;SDS011;73465;51.038;7.052;2024-03-17T07:56:01;11.88;;;5.80;;
83247;SDS011;73465;51.038;7.052;2024-03-17T07:58:29;9.45;;;5.38;;
83247;SDS011;73465;51.038;7.052;2024-03-17T08:01:19;7.90;;;5.22;;
83247;SDS011;73465;51.038;7.052;2024-03-17T08:03:44;10.68;;;4.60;;
83247;SDS011;73465;51.038;7.052;2024-03-17T08:06:10;6.50;;;3.83;;
83247;SDS011;73465;51.038;7.052;2024-03-17T08:08:36;8.85;;;3.92;;
83247;SDS011;73465;51.038;7.052;2024-03-17T08:11:02;7.07;;;3.53;;
83247;SDS011;73465;51.038;7.052;2024-03-17T08:13:28;5.63;;;3.38;;
83247;SDS011;73465;51.038;7.052;2024-03-17T08:15:59;7.60;;;3.53;;
83247;SDS011;73465;51.038;7.052;2024-03-17T08:18:25;7.13;;;2.92;;
83247;SDS011;73465;51.038;7.052;2024-03-17T08:20:52;7.38;;;2.85;;
83247;SDS011;73465;51.038;7.052;2024-03-17T08:23:18;8.35;;;3.10;;
83247;SDS011;73465;51.038;7.052;2024-03-17T08:25:51;6.25;;;3.05;;
83247;SDS011;73465;51.038;7.052;2024-03-17T08:28:17;6.47;;;2.72;;
83247;SDS011;73465;51.038;7.052;2024-03-17T08:30:43;4.57;;;2.40;;
83247;SDS011;73465;51.038;7.052;2024-03-17T08:33:08;4.10;;;2.38;;
83247;SDS011;73465;51.038;7.052;2024-03-17T08:35:35;8.27;;;2.83;;
83247;SDS011;73465;51.038;7.052;2024-03-17T08:38:02;3.42;;;2.10;;
83247;SDS011;73465;51.038;7.052;2024-03-17T08:40:27;4.53;;;2.65;;
83247;SDS011;73465;51.038;7.052;2024-03-17T08:42:53;4.60;;;2.25;;
83247;SDS011;73465;51.038;7.052;2024-03-17T08:45:18;6.25;;;2.22;;
83247;SDS011;73465;51.038;7.052;2024-03-17T08:47:43;3.45;;;2.08;;
83247;SDS011;73465;51.038;7.052;2024-03-17T08:50:09;3.20;;;1.75;;
83247;SDS011;73465;51.038;7.052;2024-03-17T08:52:37;3.67;;;2.10;;
83247;SDS011;73465;51.038;7.052;2024-03-17T08:55:02;3.95;;;1.92;;
83247;SDS011;73465;51.038;7.052;2024-03-17T08:57:29;3.33;;;2.10;;
83247;SDS011;73465;51.038;7.052;2024-03-17T08:59:54;6.00;;;2.10;;
83247;SDS011;73465;51.038;7.052;2024-03-17T09:02:20;5.03;;;1.63;;
83247;SDS011;73465;51.038;7.052;2024-03-17T09:04:48;5.03;;;2.17;;
83247;SDS011;73465;51.038;7.052;2024-03-17T09:07:13;5.43;;;2.30;;
83247;SDS011;73465;51.038;7.052;2024-03-17T09:09:42;4.03;;;1.95;;
83247;SDS011;73465;51.038;7.052;2024-03-17T09:12:07;3.72;;;2.00;;
83247;SDS011;73465;51.038;7.052;2024-03-17T09:14:33;5.03;;;2.80;;
83247;SDS011;73465;51.038;7.052;2024-03-17T09:16:58;5.53;;;2.40;;
83247;SDS011;73465;51.038;7.052;2024-03-17T09:19:25;4.88;;;2.65;;
83247;SDS011;73465;51.038;7.052;2024-03-17T09:21:50;6.38;;;3.00;;
83247;SDS011;73465;51.038;7.052;2024-03-17T09:24:15;4.13;;;2.70;;
83247;SDS011;73465;51.038;7.052;2024-03-17T09:26:41;6.22;;;3.13;;
83247;SDS011;73465;51.038;7.052;2024-03-17T09:29:06;3.58;;;2.35;;
83247;SDS011;73465;51.038;7.052;2024-03-17T09:31:31;5.75;;;2.95;;
83247;SDS011;73465;51.038;7.052;2024-03-17T09:34:00;4.07;;;2.67;;
83247;SDS011;73465;51.038;7.052;2024-03-17T09:36:26;7.47;;;3.40;;
83247;SDS011;73465;51.038;7.052;2024-03-17T09:38:52;6.25;;;3.03;;
83247;SDS011;73465;51.038;7.052;2024-03-17T09:41:21;9.23;;;3.42;;
83247;SDS011;73465;51.038;7.052;2024-03-17T09:43:49;9.52;;;3.53;;
83247;SDS011;73465;51.038;7.052;2024-03-17T09:46:19;5.22;;;3.25;;
83247;SDS011;73465;51.038;7.052;2024-03-17T09:48:45;3.80;;;2.78;;
83247;SDS011;73465;51.038;7.052;2024-03-17T09:51:21;4.78;;;2.72;;
83247;SDS011;73465;51.038;7.052;2024-03-17T09:53:48;4.20;;;2.50;;
83247;SDS011;73465;51.038;7.052;2024-03-17T09:56:15;4.78;;;2.80;;
83247;SDS011;73465;51.038;7.052;2024-03-17T09:58:43;5.45;;;2.30;;
83247;SDS011;73465;51.038;7.052;2024-03-17T10:01:11;4.32;;;2.50;;
83247;SDS011;73465;51.038;7.052;2024-03-17T10:06:17;4.50;;;2.88;;
83247;SDS011;73465;51.038;7.052;2024-03-17T10:08:51;8.95;;;2.53;;
83247;SDS011;73465;51.038;7.052;2024-03-17T10:11:21;3.88;;;2.00;;
83247;SDS011;73465;51.038;7.052;2024-03-17T10:14:00;4.00;;;2.47;;
83247;SDS011;73465;51.038;7.052;2024-03-17T10:16:37;3.95;;;2.10;;
83247;SDS011;73465;51.038;7.052;2024-03-17T10:21:43;4.50;;;2.15;;
83247;SDS011;73465;51.038;7.052;2024-03-17T10:24:34;3.50;;;1.80;;
83247;SDS011;73465;51.038;7.052;2024-03-17T10:26:59;4.22;;;2.03;;
83247;SDS011;73465;51.038;7.052;2024-03-17T10:31:55;2.97;;;1.60;;
83247;SDS011;73465;51.038;7.052;2024-03-17T10:34:39;4.50;;;2.13;;
83247;SDS011;73465;51.038;7.052;2024-03-17T10:37:19;5.40;;;2.45;;
83247;SDS011;73465;51.038;7.052;2024-03-17T10:39:50;3.85;;;1.90;;
83247;SDS011;73465;51.038;7.052;2024-03-17T10:42:24;4.55;;;2.30;;
83247;SDS011;73465;51.038;7.052;2024-03-17T10:44:53;4.50;;;2.17;;
83247;SDS011;73465;51.038;7.052;2024-03-17T10:47:21;5.40;;;2.20;;
83247;SDS011;73465;51.038;7.052;2024-03-17T10:49:51;2.70;;;1.88;;
83247;SDS011;73465;51.038;7.052;2024-03-17T10:52:21;7.82;;;2.28;;
83247;SDS011;73465;51.038;7.052;2024-03-17T10:54:51;3.42;;;2.20;;
83247;SDS011;73465;51.038;7.052;2024-03-17T11:00:05;9.40;;;2.25;;
83247;SDS011;73465;51.038;7.052;2024-03-17T11:02:35;3.78;;;2.60;;
83247;SDS011;73465;51.038;7.052;2024-03-17T11:05:03;5.72;;;2.75;;
83247;SDS011;73465;51.038;7.052;2024-03-17T11:07:38;3.90;;;2.10;;
83247;SDS011;73465;51.038;7.052;2024-03-17T11:10:10;5.38;;;2.20;;
83247;SDS011;73465;51.038;7.052;2024-03-17T11:20:33;3.92;;;2.65;;
83247;SDS011;73465;51.038;7.052;2024-03-17T11:22:58;6.93;;;2.40;;
83247;SDS011;73465;51.038;7.052;2024-03-17T11:27:51;3.63;;;2.10;;
83247;SDS011;73465;51.038;7.052;2024-03-17T11:39:06;6.53;;;2.80;;
83247;SDS011;73465;51.038;7.052;2024-03-17T11:49:25;4.72;;;1.88;;
83247;SDS011;73465;51.038;7.052;2024-03-17T11:52:04;3.25;;;1.63;;
83247;SDS011;73465;51.038;7.052;2024-03-17T11:54:36;4.38;;;1.75;;
83247;SDS011;73465;51.038;7.052;2024-03-17T11:57:05;2.53;;;1.67;;
83247;SDS011;73465;51.038;7.052;2024-03-17T11:59:44;4.75;;;1.90;;
83247;SDS011;73465;51.038;7.052;2024-03-17T12:04:43;5.00;;;2.20;;
83247;SDS011;73465;51.038;7.052;2024-03-17T12:07:16;2.47;;;1.95;;
83247;SDS011;73465;51.038;7.052;2024-03-17T12:09:43;6.30;;;2.00;;
83247;SDS011;73465;51.038;7.052;2024-03-17T12:12:17;4.78;;;1.73;;
83247;SDS011;73465;51.038;7.052;2024-03-17T12:14:44;5.40;;;1.83;;
83247;SDS011;73465;51.038;7.052;2024-03-17T12:17:10;4.55;;;2.20;;
83247;SDS011;73465;51.038;7.052;2024-03-17T12:19:38;4.10;;;2.33;;
83247;SDS011;73465;51.038;7.052;2024-03-17T12:22:04;3.97;;;2.25;;
83247;SDS011;73465;51.038;7.052;2024-03-17T12:24:31;4.03;;;1.90;;
83247;SDS011;73465;51.038;7.052;2024-03-17T12:27:01;4.05;;;1.70;;
83247;SDS011;73465;51.038;7.052;2024-03-17T12:29:37;5.53;;;2.20;;
83247;SDS011;73465;51.038;7.052;2024-03-17T12:34:41;3.58;;;2.50;;
83247;SDS011;73465;51.038;7.052;2024-03-17T12:37:13;5.07;;;2.42;;
83247;SDS011;73465;51.038;7.052;2024-03-17T12:39:43;4.80;;;2.53;;
83247;SDS011;73465;51.038;7.052;2024-03-17T12:44:48;4.13;;;2.33;;
83247;SDS011;73465;51.038;7.052;2024-03-17T12:47:31;3.45;;;2.17;;
83247;SDS011;73465;51.038;7.052;2024-03-17T12:49:58;5.15;;;1.92;;
83247;SDS011;73465;51.038;7.052;2024-03-17T12:54:59;5.53;;;2.50;;
83247;SDS011;73465;51.038;7.052;2024-03-17T12:57:45;4.47;;;2.85;;
83247;SDS011;73465;51.038;7.052;2024-03-17T13:00:30;4.68;;;2.30;;
83247;SDS011;73465;51.038;7.052;2024-03-17T13:03:02;4.53;;;2.13;;
83247;SDS011;73465;51.038;7.052;2024-03-17T13:05:31;5.90;;;2.50;;
83247;SDS011;73465;51.038;7.052;2024-03-17T13:07:57;3.65;;;2.35;;
83247;SDS011;73465;51.038;7.052;2024-03-17T13:10:23;4.55;;;2.28;;
83247;SDS011;73465;51.038;7.052;2024-03-17T13:13:08;6.70;;;2.45;;
83247;SDS011;73465;51.038;7.052;2024-03-17T13:15:34;5.18;;;2.72;;
83247;SDS011;73465;51.038;7.052;2024-03-17T13:18:03;4.20;;;2.45;;
83247;SDS011;73465;51.038;7.052;2024-03-17T13:20:30;4.22;;;2.22;;
83247;SDS011;73465;51.038;7.052;2024-03-17T13:22:56;6.78;;;2.80;;
83247;SDS011;73465;51.038;7.052;2024-03-17T13:25:29;5.10;;;2.40;;
83247;SDS011;73465;51.038;7.052;2024-03-17T13:27:59;3.67;;;2.35;;
83247;SDS011;73465;51.038;7.052;2024-03-17T13:30:26;6.40;;;2.53;;
83247;SDS011;73465;51.038;7.052;2024-03-17T13:32:53;4.80;;;2.33;;
83247;SDS011;73465;51.038;7.052;2024-03-17T13:35:28;5.93;;;2.25;;
83247;SDS011;73465;51.038;7.052;2024-03-17T13:37:55;5.05;;;2.28;;
83247;SDS011;73465;51.038;7.052;2024-03-17T13:40:22;3.58;;;1.90;;
83247;SDS011;73465;51.038;7.052;2024-03-17T13:42:51;5.53;;;2.75;;
83247;SDS011;73465;51.038;7.052;2024-03-17T13:45:18;7.40;;;2.42;;
83247;SDS011;73465;51.038;7.052;2024-03-17T13:47:52;3.72;;;2.35;;
83247;SDS011;73465;51.038;7.052;2024-03-17T13:50:21;3.72;;;2.40;;
83247;SDS011;73465;51.038;7.052;2024-03-17T13:52:46;4.30;;;1.90;;
83247;SDS011;73465;51.038;7.052;2024-03-17T13:55:14;6.40;;;1.77;;
83247;SDS011;73465;51.038;7.052;2024-03-17T13:57:45;5.60;;;1.95;;
83247;SDS011;73465;51.038;7.052;2024-03-17T14:00:12;3.60;;;2.05;;
83247;SDS011;73465;51.038;7.052;2024-03-17T14:02:44;7.60;;;1.92;;
83247;SDS011;73465;51.038;7.052;2024-03-17T14:05:13;3.80;;;1.92;;
83247;SDS011;73465;51.038;7.052;2024-03-17T14:07:41;4.30;;;2.22;;
83247;SDS011;73465;51.038;7.052;2024-03-17T14:10:07;6.95;;;1.73;;
83247;SDS011;73465;51.038;7.052;2024-03-17T14:12:34;7.03;;;2.85;;
83247;SDS011;73465;51.038;7.052;2024-03-17T14:15:00;5.80;;;2.20;;
83247;SDS011;73465;51.038;7.052;2024-03-17T14:17:26;4.57;;;2.40;;
83247;SDS011;73465;51.038;7.052;2024-03-17T14:19:52;5.63;;;1.77;;
83247;SDS011;73465;51.038;7.052;2024-03-17T14:22:18;4.88;;;2.33;;
83247;SDS011;73465;51.038;7.052;2024-03-17T14:24:44;5.07;;;2.22;;
83247;SDS011;73465;51.038;7.052;2024-03-17T14:27:12;3.85;;;1.77;;
83247;SDS011;73465;51.038;7.052;2024-03-17T14:29:39;3.75;;;2.15;;
83247;SDS011;73465;51.038;7.052;2024-03-17T14:32:04;4.25;;;2.10;;
83247;SDS011;73465;51.038;7.052;2024-03-17T14:34:30;5.80;;;2.20;;
83247;SDS011;73465;51.038;7.052;2024-03-17T14:37:00;3.28;;;2.00;;
83247;SDS011;73465;51.038;7.052;2024-03-17T14:39:26;2.90;;;1.85;;
83247;SDS011;73465;51.038;7.052;2024-03-17T14:41:54;8.50;;;2.50;;
83247;SDS011;73465;51.038;7.052;2024-03-17T14:44:19;2.97;;;1.88;;
83247;SDS011;73465;51.038;7.052;2024-03-17T14:46:45;4.47;;;2.10;;
83247;SDS011;73465;51.038;7.052;2024-03-17T14:49:11;5.90;;;2.35;;
83247;SDS011;73465;51.038;7.052;2024-03-17T14:51:37;4.80;;;2.08;;
83247;SDS011;73465;51.038;7.052;2024-03-17T14:54:02;4.40;;;2.03;;
83247;SDS011;73465;51.038;7.052;2024-03-17T14:56:28;5.60;;;2.30;;
83247;SDS011;73465;51.038;7.052;2024-03-17T14:58:54;4.65;;;2.03;;
83247;SDS011;73465;51.038;7.052;2024-03-17T15:01:19;5.03;;;1.83;;
83247;SDS011;73465;51.038;7.052;2024-03-17T15:03:45;3.38;;;2.10;;
83247;SDS011;73465;51.038;7.052;2024-03-17T15:06:13;2.60;;;1.52;;
83247;SDS011;73465;51.038;7.052;2024-03-17T15:08:39;4.82;;;2.13;;
83247;SDS011;73465;51.038;7.052;2024-03-17T15:11:05;5.90;;;2.40;;
83247;SDS011;73465;51.038;7.052;2024-03-17T15:13:32;4.93;;;1.95;;
83247;SDS011;73465;51.038;7.052;2024-03-17T15:15:58;3.42;;;1.73;;
83247;SDS011;73465;51.038;7.052;2024-03-17T15:18:23;3.85;;;1.55;;
83247;SDS011;73465;51.038;7.052;2024-03-17T15:20:52;4.03;;;1.80;;
83247;SDS011;73465;51.038;7.052;2024-03-17T15:23:20;3.78;;;2.00;;
83247;SDS011;73465;51.038;7.052;2024-03-17T15:25:45;4.07;;;2.10;;
83247;SDS011;73465;51.038;7.052;2024-03-17T15:28:11;4.88;;;2.33;;
83247;SDS011;73465;51.038;7.052;2024-03-17T15:30:37;2.17;;;1.80;;
83247;SDS011;73465;51.038;7.052;2024-03-17T15:33:03;5.45;;;1.75;;
83247;SDS011;73465;51.038;7.052;2024-03-17T15:35:28;6.00;;;2.30;;